Observation data for Roaring Springs on 04/21/2019      Previous  Date       Current Mesonet Observations  Soil Data  Daily Summary Page  Observations in Plain Language
KRRS 210500Z 19012KT 19/08 A2983 RMK A01 T01930082  RH  050%=      5-min Rain = 0
KRRS 210505Z 19013KT 19/08 A2983 RMK A01 T01920082  RH  050%=      5-min Rain = 0
KRRS 210510Z 19013KT 19/08 A2983 RMK A01 T01900082  RH  051%=      5-min Rain = 0
KRRS 210515Z 19011KT 19/08 A2983 RMK A01 T01860083  RH  052%=      5-min Rain = 0
KRRS 210520Z 18011KT 18/08 A2983 RMK A01 T01830083  RH  054%=      5-min Rain = 0
KRRS 210525Z 18011KT 18/08 A2983 RMK A01 T01800083  RH  055%=      5-min Rain = 0
KRRS 210530Z 18011KT 18/08 A2983 RMK A01 T01790082  RH  055%=      5-min Rain = 0
KRRS 210535Z 18011KT 18/08 A2983 RMK A01 T01790082  RH  054%=      5-min Rain = 0
KRRS 210540Z 18011KT 18/08 A2983 RMK A01 T01780082  RH  055%=      5-min Rain = 0
KRRS 210545Z 18010KT 18/08 A2983 RMK A01 T01760082  RH  055%=      5-min Rain = 0
KRRS 210550Z 18010KT 18/08 A2982 RMK A01 T01750082  RH  056%=      5-min Rain = 0
KRRS 210555Z 18010KT 17/08 A2982 RMK A01 T01740082  RH  056%=      5-min Rain = 0
KRRS 210600Z 18010KT 17/08 A2982 RMK A01 T01720082  RH  057%=      5-min Rain = 0
KRRS 210605Z 18011KT 17/08 A2982 RMK A01 T01730082  RH  057%=      5-min Rain = 0
KRRS 210610Z 19011KT 17/08 A2982 RMK A01 T01740082  RH  056%=      5-min Rain = 0
KRRS 210615Z 19011KT 18/08 A2982 RMK A01 T01750082  RH  056%=      5-min Rain = 0
KRRS 210620Z 19011KT 17/08 A2982 RMK A01 T01740082  RH  056%=      5-min Rain = 0
KRRS 210625Z 19012KT 17/08 A2982 RMK A01 T01730082  RH  057%=      5-min Rain = 0
KRRS 210630Z 18012KT 17/08 A2982 RMK A01 T01740082  RH  056%=      5-min Rain = 0
KRRS 210635Z 18012KT 18/08 A2982 RMK A01 T01750082  RH  056%=      5-min Rain = 0
KRRS 210640Z 18012KT 17/08 A2982 RMK A01 T01740082  RH  056%=      5-min Rain = 0
KRRS 210645Z 19012KT 17/08 A2982 RMK A01 T01740083  RH  057%=      5-min Rain = 0
KRRS 210650Z 19012KT 17/08 A2981 RMK A01 T01730083  RH  057%=      5-min Rain = 0
KRRS 210655Z 19013KT 18/08 A2981 RMK A01 T01760084  RH  056%=      5-min Rain = 0
KRRS 210700Z 19013KT 18/09 A2981 RMK A01 T01780085  RH  056%=      5-min Rain = 0
KRRS 210705Z 19012KT 18/09 A2981 RMK A01 T01810086  RH  055%=      5-min Rain = 0
KRRS 210710Z 19013KT 18/09 A2981 RMK A01 T01820087  RH  055%=      5-min Rain = 0
KRRS 210715Z 19014G19KT 18/09 A2981 RMK A01 T01830087  RH  055%=      5-min Rain = 0
KRRS 210720Z 20014KT 18/09 A2981 RMK A01 T01840087  RH  055%=      5-min Rain = 0
KRRS 210725Z 19014G19KT 18/09 A2981 RMK A01 T01820088  RH  056%=      5-min Rain = 0
KRRS 210730Z 20016KT 18/09 A2981 RMK A01 T01840088  RH  055%=      5-min Rain = 0
KRRS 210735Z 20016KT 19/09 A298 RMK A01 T01860088  RH  055%=      5-min Rain = 0
KRRS 210740Z 19015KT 19/09 A298 RMK A01 T01850089  RH  055%=      5-min Rain = 0
KRRS 210745Z 20015G21KT 19/09 A298 RMK A01 T01850089  RH  055%=      5-min Rain = 0
KRRS 210750Z 20013KT 18/09 A298 RMK A01 T01830090  RH  056%=      5-min Rain = 0
KRRS 210755Z 20012KT 18/09 A298 RMK A01 T01800090  RH  057%=      5-min Rain = 0
KRRS 210800Z 20012KT 18/09 A298 RMK A01 T01770090  RH  058%=      5-min Rain = 0
KRRS 210805Z 20013KT 18/09 A298 RMK A01 T01750090  RH  059%=      5-min Rain = 0
KRRS 210810Z 20013KT 18/09 A298 RMK A01 T01750091  RH  060%=      5-min Rain = 0
KRRS 210815Z 20013KT 18/09 A298 RMK A01 T01760091  RH  059%=      5-min Rain = 0
KRRS 210820Z 20013KT 18/09 A298 RMK A01 T01760091  RH  059%=      5-min Rain = 0
KRRS 210825Z 20014G19KT 18/09 A298 RMK A01 T01760091  RH  059%=      5-min Rain = 0
KRRS 210830Z 20014G22KT 18/09 A298 RMK A01 T01770091  RH  059%=      5-min Rain = 0
KRRS 210835Z 20014KT 18/09 A298 RMK A01 T01760092  RH  060%=      5-min Rain = 0
KRRS 210840Z 20014KT 18/09 A298 RMK A01 T01760092  RH  059%=      5-min Rain = 0
KRRS 210845Z 20014G20KT 18/09 A298 RMK A01 T01760092  RH  060%=      5-min Rain = 0
KRRS 210850Z 20015G20KT 18/09 A298 RMK A01 T01770092  RH  059%=      5-min Rain = 0
KRRS 210855Z 21014KT 18/09 A298 RMK A01 T01780092  RH  059%=      5-min Rain = 0
KRRS 210900Z 21016G21KT 18/09 A298 RMK A01 T01780093  RH  059%=      5-min Rain = 0
KRRS 210905Z 21015G21KT 18/09 A2979 RMK A01 T01790093  RH  059%=      5-min Rain = 0
KRRS 210910Z 21015G22KT 18/09 A2979 RMK A01 T01780093  RH  059%=      5-min Rain = 0
KRRS 210915Z 21013G19KT 18/09 A2979 RMK A01 T01760094  RH  060%=      5-min Rain = 0
KRRS 210920Z 21014G21KT 18/09 A2979 RMK A01 T01750093  RH  061%=      5-min Rain = 0
KRRS 210925Z 21013G20KT 17/09 A2979 RMK A01 T01730094  RH  061%=      5-min Rain = 0
KRRS 210930Z 20013KT 17/09 A2979 RMK A01 T01720094  RH  062%=      5-min Rain = 0
KRRS 210935Z 20013G19KT 17/09 A2979 RMK A01 T01700094  RH  063%=      5-min Rain = 0
KRRS 210940Z 20013KT 17/09 A2979 RMK A01 T01700094  RH  063%=      5-min Rain = 0
KRRS 210945Z 20014G20KT 17/10 A2979 RMK A01 T01720095  RH  063%=      5-min Rain = 0
KRRS 210950Z 20015G22KT 17/10 A2979 RMK A01 T01720095  RH  063%=      5-min Rain = 0
KRRS 210955Z 20014KT 17/10 A2979 RMK A01 T01730096  RH  062%=      5-min Rain = 0
KRRS 211000Z 20016G23KT 17/10 A2979 RMK A01 T01740096  RH  062%=      5-min Rain = 0
KRRS 211005Z 20016KT 18/10 A2979 RMK A01 T01750097  RH  062%=      5-min Rain = 0
KRRS 211010Z 20015G22KT 17/10 A2979 RMK A01 T01740097  RH  063%=      5-min Rain = 0
KRRS 211015Z 20016G22KT 17/10 A2978 RMK A01 T01740098  RH  063%=      5-min Rain = 0
KRRS 211020Z 20017G22KT 18/10 A2978 RMK A01 T01750098  RH  063%=      5-min Rain = 0
KRRS 211025Z 20018G23KT 18/10 A2978 RMK A01 T01750098  RH  063%=      5-min Rain = 0
KRRS 211030Z 20017G23KT 18/10 A2978 RMK A01 T01750099  RH  063%=      5-min Rain = 0
KRRS 211035Z 20016G24KT 18/10 A2978 RMK A01 T01750099  RH  063%=      5-min Rain = 0
KRRS 211040Z 20016KT 17/10 A2978 RMK A01 T01740100  RH  063%=      5-min Rain = 0
KRRS 211045Z 21016G24KT 18/10 A2979 RMK A01 T01750100  RH  063%=      5-min Rain = 0
KRRS 211050Z 21015G20KT 18/10 A2979 RMK A01 T01750100  RH  064%=      5-min Rain = 0
KRRS 211055Z 20016G23KT 17/10 A2979 RMK A01 T01740100  RH  064%=      5-min Rain = 0
KRRS 211100Z 20016G23KT 17/10 A2979 RMK A01 T01730100  RH  064%=      5-min Rain = 0
KRRS 211105Z 20016G23KT 17/10 A2979 RMK A01 T01730101  RH  064%=      5-min Rain = 0
KRRS 211110Z 20014KT 17/10 A2979 RMK A01 T01710101  RH  065%=      5-min Rain = 0
KRRS 211115Z 20013G19KT 17/10 A298 RMK A01 T01700101  RH  066%=      5-min Rain = 0
KRRS 211120Z 20014G20KT 17/10 A298 RMK A01 T01690101  RH  066%=      5-min Rain = 0
KRRS 211125Z 20012KT 17/10 A298 RMK A01 T01670101  RH  067%=      5-min Rain = 0
KRRS 211130Z 20010KT 17/10 A298 RMK A01 T01650101  RH  068%=      5-min Rain = 0
KRRS 211135Z 19010KT 16/10 A298 RMK A01 T01630101  RH  069%=      5-min Rain = 0
KRRS 211140Z 19010KT 16/10 A298 RMK A01 T01610101  RH  070%=      5-min Rain = 0
KRRS 211145Z 19009G14KT 16/10 A2981 RMK A01 T01600101  RH  070%=      5-min Rain = 0
KRRS 211150Z 18009KT 16/10 A2981 RMK A01 T01590101  RH  071%=      5-min Rain = 0
KRRS 211155Z 19008G13KT 16/10 A2981 RMK A01 T01580101  RH  071%=      5-min Rain = 0
KRRS 211200Z 18007KT 16/10 A2981 RMK A01 T01570100  RH  072%=      5-min Rain = 0
KRRS 211205Z 18007KT 15/10 A2981 RMK A01 T01540100  RH  073%=      5-min Rain = 0
KRRS 211210Z 18006KT 15/10 A2981 RMK A01 T01510100  RH  074%=      5-min Rain = 0
KRRS 211215Z 18006KT 15/10 A2981 RMK A01 T01500100  RH  074%=      5-min Rain = 0
KRRS 211220Z 18006KT 15/10 A2982 RMK A01 T01530100  RH  073%=      5-min Rain = 0
KRRS 211225Z 17005KT 15/10 A2982 RMK A01 T01520100  RH  074%=      5-min Rain = 0
KRRS 211230Z 18005KT 15/10 A2982 RMK A01 T01510101  RH  074%=      5-min Rain = 0
KRRS 211235Z 18005KT 15/10 A2982 RMK A01 T01510101  RH  075%=      5-min Rain = 0
KRRS 211240Z 19006KT 15/10 A2982 RMK A01 T01510102  RH  075%=      5-min Rain = 0
KRRS 211245Z 19007KT 15/10 A2982 RMK A01 T01530103  RH  074%=      5-min Rain = 0
KRRS 211250Z 19007KT 16/10 A2982 RMK A01 T01560104  RH  074%=      5-min Rain = 0
KRRS 211255Z 19007KT 16/11 A2983 RMK A01 T01570105  RH  074%=      5-min Rain = 0
KRRS 211300Z 20008KT 16/11 A2982 RMK A01 T01600106  RH  073%=      5-min Rain = 0
KRRS 211305Z 20008KT 16/11 A2982 RMK A01 T01640107  RH  072%=      5-min Rain = 0
KRRS 211310Z 20008KT 17/11 A2982 RMK A01 T01670108  RH  071%=      5-min Rain = 0
KRRS 211315Z 20009KT 17/11 A2982 RMK A01 T01700108  RH  069%=      5-min Rain = 0
KRRS 211320Z 21010KT 17/11 A2982 RMK A01 T01730108  RH  068%=      5-min Rain = 0
KRRS 211325Z 21008KT 18/11 A2982 RMK A01 T01750110  RH  068%=      5-min Rain = 0
KRRS 211330Z 21009KT 18/11 A2983 RMK A01 T01780110  RH  067%=      5-min Rain = 0
KRRS 211335Z 22009KT 18/11 A2983 RMK A01 T01810111  RH  066%=      5-min Rain = 0
KRRS 211340Z 22010G15KT 18/11 A2983 RMK A01 T01840112  RH  065%=      5-min Rain = 0
KRRS 211345Z 22014G20KT 19/11 A2983 RMK A01 T01850109  RH  063%=      5-min Rain = 0
KRRS 211350Z 22014KT 19/11 A2983 RMK A01 T01870109  RH  063%=      5-min Rain = 0
KRRS 211355Z 21013G18KT 19/11 A2983 RMK A01 T01890111  RH  062%=      5-min Rain = 0
KRRS 211400Z 22011KT 19/11 A2983 RMK A01 T01910111  RH  062%=      5-min Rain = 0
KRRS 211405Z 22011G18KT 19/11 A2983 RMK A01 T01940112  RH  061%=      5-min Rain = 0
KRRS 211410Z 22013G19KT 20/11 A2983 RMK A01 T01960111  RH  060%=      5-min Rain = 0
KRRS 211415Z 23014G21KT 20/11 A2983 RMK A01 T01980111  RH  059%=      5-min Rain = 0
KRRS 211420Z 23014G22KT 20/11 A2983 RMK A01 T02000110  RH  058%=      5-min Rain = 0
KRRS 211425Z 23016G22KT 20/11 A2982 RMK A01 T02010110  RH  058%=      5-min Rain = 0
KRRS 211430Z 23019G24KT 20/11 A2982 RMK A01 T02010109  RH  057%=      5-min Rain = 0
KRRS 211435Z 22014G20KT 20/11 A2982 RMK A01 T02030112  RH  058%=      5-min Rain = 0
KRRS 211440Z 23013G19KT 21/11 A2982 RMK A01 T02060114  RH  058%=      5-min Rain = 0
KRRS 211445Z 23014G21KT 21/11 A2982 RMK A01 T02080114  RH  057%=      5-min Rain = 0
KRRS 211450Z 23017KT 21/11 A2982 RMK A01 T02080111  RH  056%=      5-min Rain = 0
KRRS 211455Z 23017G23KT 21/11 A2982 RMK A01 T02080111  RH  056%=      5-min Rain = 0
KRRS 211500Z 23013G20KT 21/12 A2982 RMK A01 T02120116  RH  056%=      5-min Rain = 0
KRRS 211505Z 24015G22KT 22/11 A2982 RMK A01 T02160114  RH  054%=      5-min Rain = 0
KRRS 211510Z 23017G23KT 22/11 A2982 RMK A01 T02170111  RH  053%=      5-min Rain = 0
KRRS 211515Z 23018KT 22/11 A2982 RMK A01 T02200109  RH  051%=      5-min Rain = 0
KRRS 211520Z 24018KT 22/11 A2982 RMK A01 T02220108  RH  050%=      5-min Rain = 0
KRRS 211525Z 23015G21KT 22/11 A2982 RMK A01 T02230111  RH  051%=      5-min Rain = 0
KRRS 211530Z 24017G24KT 22/11 A2982 RMK A01 T02220108  RH  050%=      5-min Rain = 0
KRRS 211535Z 24014G20KT 23/11 A2981 RMK A01 T02260113  RH  051%=      5-min Rain = 0
KRRS 211540Z 24014G19KT 23/11 A2981 RMK A01 T02270111  RH  050%=      5-min Rain = 0
KRRS 211545Z 25013G18KT 23/11 A2981 RMK A01 T02270110  RH  049%=      5-min Rain = 0
KRRS 211550Z 24015G21KT 23/11 A2981 RMK A01 T02320110  RH  048%=      5-min Rain = 0
KRRS 211555Z 24015G20KT 24/11 A2981 RMK A01 T02370111  RH  047%=      5-min Rain = 0
KRRS 211600Z 24015G20KT 24/11 A2981 RMK A01 T02410106  RH  044%=      5-min Rain = 0
KRRS 211605Z 25013G18KT 25/11 A2982 RMK A01 T02450109  RH  044%=      5-min Rain = 0
KRRS 211610Z 25014G19KT 25/10 A2982 RMK A01 T02470104  RH  042%=      5-min Rain = 0
KRRS 211615Z 24013G18KT 25/11 A2982 RMK A01 T02480105  RH  042%=      5-min Rain = 0
KRRS 211620Z 25014KT 25/10 A2982 RMK A01 T02480103  RH  042%=      5-min Rain = 0
KRRS 211625Z 24012KT 25/11 A2982 RMK A01 T02500111  RH  043%=      5-min Rain = 0
KRRS 211630Z 24012G17KT 26/11 A2982 RMK A01 T02550111  RH  042%=      5-min Rain = 0
KRRS 211635Z 24013KT 26/11 A2982 RMK A01 T02560107  RH  041%=      5-min Rain = 0
KRRS 211640Z 24011G16KT 26/11 A2982 RMK A01 T02590110  RH  041%=      5-min Rain = 0
KRRS 211645Z 23011KT 26/11 A2983 RMK A01 T02620112  RH  040%=      5-min Rain = 0
KRRS 211650Z 23010KT 26/11 A2982 RMK A01 T02640113  RH  040%=      5-min Rain = 0
KRRS 211655Z 24011KT 27/11 A2982 RMK A01 T02670111  RH  039%=      5-min Rain = 0
KRRS 211700Z 23012KT 27/11 A2983 RMK A01 T02700109  RH  038%=      5-min Rain = 0
KRRS 211705Z 24012G17KT 27/11 A2983 RMK A01 T02710107  RH  037%=      5-min Rain = 0
KRRS 211710Z 24012G17KT 28/11 A2983 RMK A01 T02750109  RH  037%=      5-min Rain = 0
KRRS 211715Z 24012KT 28/11 A2982 RMK A01 T02800105  RH  035%=      5-min Rain = 0
KRRS 211720Z 25012KT 28/10 A2983 RMK A01 T02820101  RH  033%=      5-min Rain = 0
KRRS 211725Z 25011G16KT 28/10 A2982 RMK A01 T02830095  RH  032%=      5-min Rain = 0
KRRS 211730Z 25012KT 29/09 A2982 RMK A01 T02870092  RH  031%=      5-min Rain = 0
KRRS 211735Z 25011G19KT 29/09 A2982 RMK A01 T02910094  RH  030%=      5-min Rain = 0
KRRS 211740Z 27011KT 29/08 A2982 RMK A01 T02940083  RH  028%=      5-min Rain = 0
KRRS 211745Z 26013KT 30/07 A2982 RMK A01 T02950068  RH  025%=      5-min Rain = 0
KRRS 211750Z 27011G16KT 30/07 A2982 RMK A01 T02970073  RH  025%=      5-min Rain = 0
KRRS 211755Z 26012KT 30/07 A2982 RMK A01 T02990070  RH  024%=      5-min Rain = 0
KRRS 211800Z 28012KT 30/06 A2982 RMK A01 T03000062  RH  023%=      5-min Rain = 0
KRRS 211805Z 26011KT 30/06 A2982 RMK A01 T03010064  RH  023%=      5-min Rain = 0
KRRS 211810Z 26010G16KT 30/07 A2981 RMK A01 T03030070  RH  024%=      5-min Rain = 0
KRRS 211815Z 27012G17KT 30/05 A2981 RMK A01 T03030054  RH  021%=      5-min Rain = 0
KRRS 211820Z 27009KT 30/06 A2981 RMK A01 T03030060  RH  022%=      5-min Rain = 0
KRRS 211825Z 24010G15KT 31/06 A2981 RMK A01 T03060055  RH  021%=      5-min Rain = 0
KRRS 211830Z 24010KT 31/05 A2981 RMK A01 T03060052  RH  021%=      5-min Rain = 0
KRRS 211835Z 27009G15KT 31/06 A2981 RMK A01 T03070056  RH  021%=      5-min Rain = 0
KRRS 211840Z 28010KT 31/05 A2981 RMK A01 T03070050  RH  020%=      5-min Rain = 0
KRRS 211845Z 25010KT 31/05 A2981 RMK A01 T03070045  RH  020%=      5-min Rain = 0
KRRS 211850Z 24009G15KT 31/05 A2981 RMK A01 T03090053  RH  021%=      5-min Rain = 0
KRRS 211855Z 25009G16KT 31/05 A2981 RMK A01 T03110051  RH  020%=      5-min Rain = 0
KRRS 211900Z 25010KT 31/03 A2981 RMK A01 T03090033  RH  018%=      5-min Rain = 0
KRRS 211905Z 24008G17KT 31/04 A2981 RMK A01 T03080036  RH  018%=      5-min Rain = 0
KRRS 211910Z 25012KT 31/03 A2981 RMK A01 T03090033  RH  018%=      5-min Rain = 0
KRRS 211915Z 25008G16KT 31/05 A2981 RMK A01 T03110051  RH  020%=      5-min Rain = 0
KRRS 211920Z 25011G16KT 31/04 A2981 RMK A01 T03120035  RH  018%=      5-min Rain = 0
KRRS 211925Z 26011KT 31/03 A2981 RMK A01 T03110029  RH  017%=      5-min Rain = 0
KRRS 211930Z 22012G17KT 31/03 A298 RMK A01 T03120031  RH  017%=      5-min Rain = 0
KRRS 211935Z 22011G16KT 31/03 A298 RMK A01 T03120032  RH  017%=      5-min Rain = 0
KRRS 211940Z 23013G18KT 31/03 A298 RMK A01 T03120032  RH  017%=      5-min Rain = 0
KRRS 211945Z 24011G18KT 31/03 A298 RMK A01 T03130033  RH  017%=      5-min Rain = 0
KRRS 211950Z 23013KT 31/03 A298 RMK A01 T03130032  RH  017%=      5-min Rain = 0
KRRS 211955Z 25010KT 32/04 A298 RMK A01 T03150036  RH  018%=      5-min Rain = 0
KRRS 212000Z 27010KT 32/04 A298 RMK A01 T03150035  RH  017%=      5-min Rain = 0
KRRS 212005Z 26011KT 31/04 A298 RMK A01 T03140035  RH  018%=      5-min Rain = 0
KRRS 212010Z 24013KT 32/03 A298 RMK A01 T03150033  RH  017%=      5-min Rain = 0
KRRS 212015Z 22012G20KT 31/03 A298 RMK A01 T03140033  RH  017%=      5-min Rain = 0
KRRS 212020Z 25012G20KT 31/03 A298 RMK A01 T03140029  RH  017%=      5-min Rain = 0
KRRS 212025Z 23008G13KT 32/03 A2979 RMK A01 T03150033  RH  017%=      5-min Rain = 0
KRRS 212030Z 25012KT 32/04 A2979 RMK A01 T03160044  RH  018%=      5-min Rain = 0
KRRS 212035Z 23010G15KT 32/03 A2979 RMK A01 T03160031  RH  017%=      5-min Rain = 0
KRRS 212040Z 22010G15KT 32/04 A2979 RMK A01 T03160041  RH  018%=      5-min Rain = 0
KRRS 212045Z 24012KT 32/03 A2979 RMK A01 T03160026  RH  016%=      5-min Rain = 0
KRRS 212050Z 23013G19KT 32/03 A2979 RMK A01 T03160031  RH  017%=      5-min Rain = 0
KRRS 212055Z 23013G19KT 32/03 A2979 RMK A01 T03160033  RH  017%=      5-min Rain = 0
KRRS 212100Z 23010G15KT 32/03 A2979 RMK A01 T03160030  RH  017%=      5-min Rain = 0
KRRS 212105Z 24012KT 32/03 A2979 RMK A01 T03160029  RH  017%=      5-min Rain = 0
KRRS 212110Z 23012G19KT 32/04 A2978 RMK A01 T03170040  RH  018%=      5-min Rain = 0
KRRS 212115Z 22016G23KT 32/03 A2978 RMK A01 T03160027  RH  016%=      5-min Rain = 0
KRRS 212120Z 22014G22KT 31/03 A2978 RMK A01 T03140026  RH  016%=      5-min Rain = 0
KRRS 212125Z 23013G19KT 31/03 A2978 RMK A01 T03140030  RH  017%=      5-min Rain = 0
KRRS 212130Z 23016G21KT 32/02 A2978 RMK A01 T03150023  RH  016%=      5-min Rain = 0
KRRS 212135Z 24015KT 31/02 A2978 RMK A01 T03140020  RH  016%=      5-min Rain = 0
KRRS 212140Z 22014G19KT 31/03 A2978 RMK A01 T03140025  RH  016%=      5-min Rain = 0
KRRS 212145Z 21012G18KT 31/04 A2978 RMK A01 T03140038  RH  018%=      5-min Rain = 0
KRRS 212150Z 22018KT 31/02 A2978 RMK A01 T03140024  RH  016%=      5-min Rain = 0
KRRS 212155Z 21015KT 31/03 A2978 RMK A01 T03120025  RH  016%=      5-min Rain = 0
KRRS 212200Z 21013G19KT 31/03 A2977 RMK A01 T03130031  RH  017%=      5-min Rain = 0
KRRS 212205Z 20014G20KT 32/04 A2977 RMK A01 T03150036  RH  018%=      5-min Rain = 0
KRRS 212210Z 20015KT 31/04 A2977 RMK A01 T03130035  RH  018%=      5-min Rain = 0
KRRS 212215Z 20016KT 31/03 A2977 RMK A01 T03120033  RH  017%=      5-min Rain = 0
KRRS 212220Z 20016G22KT 31/03 A2977 RMK A01 T03110034  RH  018%=      5-min Rain = 0
KRRS 212225Z 21014G20KT 31/04 A2977 RMK A01 T03110035  RH  018%=      5-min Rain = 0
KRRS 212230Z 21018G24KT 31/03 A2977 RMK A01 T03110031  RH  017%=      5-min Rain = 0
KRRS 212235Z 21015G21KT 31/03 A2977 RMK A01 T03100032  RH  017%=      5-min Rain = 0
KRRS 212240Z 21014G20KT 31/03 A2977 RMK A01 T03100034  RH  018%=      5-min Rain = 0
KRRS 212245Z 20016G21KT 31/03 A2977 RMK A01 T03100032  RH  017%=      5-min Rain = 0
KRRS 212250Z 20014G20KT 31/04 A2977 RMK A01 T03090039  RH  018%=      5-min Rain = 0
KRRS 212255Z 20014G21KT 31/04 A2977 RMK A01 T03080042  RH  019%=      5-min Rain = 0
KRRS 212300Z 20015G21KT 31/04 A2977 RMK A01 T03080041  RH  019%=      5-min Rain = 0
KRRS 212305Z 19015G20KT 31/04 A2977 RMK A01 T03080039  RH  019%=      5-min Rain = 0
KRRS 212310Z 21016KT 31/03 A2977 RMK A01 T03080033  RH  018%=      5-min Rain = 0
KRRS 212315Z 20016G22KT 31/03 A2977 RMK A01 T03080027  RH  017%=      5-min Rain = 0
KRRS 212320Z 21013KT 31/03 A2977 RMK A01 T03070030  RH  018%=      5-min Rain = 0
KRRS 212325Z 20015G24KT 31/04 A2977 RMK A01 T03060037  RH  018%=      5-min Rain = 0
KRRS 212330Z 21017G22KT 31/02 A2977 RMK A01 T03050020  RH  016%=      5-min Rain = 0
KRRS 212335Z 20013KT 31/03 A2977 RMK A01 T03050033  RH  018%=      5-min Rain = 0
KRRS 212340Z 21015G21KT 30/03 A2977 RMK A01 T03040029  RH  018%=      5-min Rain = 0
KRRS 212345Z 21012G18KT 30/04 A2977 RMK A01 T03030035  RH  019%=      5-min Rain = 0
KRRS 212350Z 20016KT 30/02 A2977 RMK A01 T03030020  RH  017%=      5-min Rain = 0
KRRS 212355Z 20015KT 30/02 A2978 RMK A01 T03010023  RH  017%=      5-min Rain = 0
KRRS 220000Z 20014G19KT 30/02 A2978 RMK A01 T03000022  RH  017%=      5-min Rain = 0
KRRS 220005Z 21013KT 30/03 A2977 RMK A01 T02980026  RH  018%=      5-min Rain = 0
KRRS 220010Z 21012KT 30/03 A2977 RMK A01 T02970028  RH  018%=      5-min Rain = 0
KRRS 220015Z 20010KT 29/04 A2977 RMK A01 T02930038  RH  020%=      5-min Rain = 0
KRRS 220020Z 20010KT 29/04 A2978 RMK A01 T02900038  RH  020%=      5-min Rain = 0
KRRS 220025Z 20010KT 29/04 A2978 RMK A01 T02870039  RH  021%=      5-min Rain = 0
KRRS 220030Z 20010KT 29/03 A2978 RMK A01 T02850033  RH  020%=      5-min Rain = 0
KRRS 220035Z 20010KT 28/03 A2978 RMK A01 T02830030  RH  020%=      5-min Rain = 0
KRRS 220040Z 19010KT 28/03 A2978 RMK A01 T02790030  RH  021%=      5-min Rain = 0
KRRS 220045Z 20010KT 28/03 A2978 RMK A01 T02760032  RH  021%=      5-min Rain = 0
KRRS 220050Z 20008KT 27/04 A2979 RMK A01 T02710039  RH  023%=      5-min Rain = 0
KRRS 220055Z 19008KT 26/04 A2979 RMK A01 T02640042  RH  024%=      5-min Rain = 0
KRRS 220100Z 19009KT 26/04 A2979 RMK A01 T02590041  RH  025%=      5-min Rain = 0
KRRS 220105Z 19009KT 26/04 A2979 RMK A01 T02560040  RH  025%=      5-min Rain = 0
KRRS 220110Z 19008KT 25/04 A2979 RMK A01 T02510043  RH  027%=      5-min Rain = 0
KRRS 220115Z 19008KT 24/04 A2979 RMK A01 T02440044  RH  028%=      5-min Rain = 0
KRRS 220120Z 19007KT 24/04 A2979 RMK A01 T02390043  RH  029%=      5-min Rain = 0
KRRS 220125Z 19007KT 24/04 A298 RMK A01 T02360043  RH  029%=      5-min Rain = 0
KRRS 220130Z 19007KT 23/04 A298 RMK A01 T02320044  RH  030%=      5-min Rain = 0
KRRS 220135Z 18006KT 23/05 A298 RMK A01 T02260045  RH  031%=      5-min Rain = 0
KRRS 220140Z 19007KT 22/04 A298 RMK A01 T02240044  RH  032%=      5-min Rain = 0
KRRS 220145Z 20007KT 22/04 A298 RMK A01 T02230043  RH  031%=      5-min Rain = 0
KRRS 220150Z 20007KT 22/05 A298 RMK A01 T02220046  RH  032%=      5-min Rain = 0
KRRS 220155Z 20007KT 22/05 A2981 RMK A01 T02160048  RH  034%=      5-min Rain = 0
KRRS 220200Z 20008KT 21/05 A2981 RMK A01 T02120051  RH  036%=      5-min Rain = 0
KRRS 220205Z 20008KT 21/06 A2981 RMK A01 T02070055  RH  038%=      5-min Rain = 0
KRRS 220210Z 21008KT 20/06 A2981 RMK A01 T02040056  RH  039%=      5-min Rain = 0
KRRS 220215Z 21008KT 20/06 A2982 RMK A01 T01980058  RH  041%=      5-min Rain = 0
KRRS 220220Z 20008KT 19/06 A2982 RMK A01 T01940058  RH  042%=      5-min Rain = 0
KRRS 220225Z 20008KT 19/06 A2982 RMK A01 T01930057  RH  042%=      5-min Rain = 0
KRRS 220230Z 20008KT 19/06 A2982 RMK A01 T01930058  RH  042%=      5-min Rain = 0
KRRS 220235Z 20008KT 19/06 A2982 RMK A01 T01930057  RH  042%=      5-min Rain = 0
KRRS 220240Z 20007KT 19/06 A2983 RMK A01 T01940056  RH  041%=      5-min Rain = 0
KRRS 220245Z 20007KT 19/06 A2983 RMK A01 T01930055  RH  041%=      5-min Rain = 0
KRRS 220250Z 21007KT 19/05 A2983 RMK A01 T01940054  RH  041%=      5-min Rain = 0
KRRS 220255Z 21007KT 19/05 A2983 RMK A01 T01940054  RH  041%=      5-min Rain = 0
KRRS 220300Z 21007KT 19/05 A2983 RMK A01 T01930054  RH  041%=      5-min Rain = 0
KRRS 220305Z 20007KT 19/06 A2983 RMK A01 T01920056  RH  042%=      5-min Rain = 0
KRRS 220310Z 21006KT 19/06 A2983 RMK A01 T01900057  RH  043%=      5-min Rain = 0
KRRS 220315Z 21006KT 19/06 A2983 RMK A01 T01900057  RH  043%=      5-min Rain = 0
KRRS 220320Z 21006KT 19/06 A2984 RMK A01 T01880058  RH  043%=      5-min Rain = 0
KRRS 220325Z 20006KT 19/06 A2984 RMK A01 T01870058  RH  044%=      5-min Rain = 0
KRRS 220330Z 20006KT 19/06 A2984 RMK A01 T01870058  RH  044%=      5-min Rain = 0
KRRS 220335Z 21007KT 19/06 A2984 RMK A01 T01870058  RH  044%=      5-min Rain = 0
KRRS 220340Z 22007KT 19/06 A2984 RMK A01 T01860058  RH  044%=      5-min Rain = 0
KRRS 220345Z 22007KT 19/06 A2984 RMK A01 T01860058  RH  044%=      5-min Rain = 0
KRRS 220350Z 21007KT 19/06 A2985 RMK A01 T01850058  RH  044%=      5-min Rain = 0
KRRS 220355Z 22006KT 19/06 A2985 RMK A01 T01860057  RH  044%=      5-min Rain = 0
KRRS 220400Z 22006KT 19/06 A2985 RMK A01 T01880055  RH  043%=      5-min Rain = 0
KRRS 220405Z 22006KT 19/06 A2985 RMK A01 T01880055  RH  043%=      5-min Rain = 0
KRRS 220410Z 22005KT 19/06 A2985 RMK A01 T01870055  RH  043%=      5-min Rain = 0
KRRS 220415Z 22005KT 19/06 A2985 RMK A01 T01870055  RH  043%=      5-min Rain = 0
KRRS 220420Z 22005KT 19/06 A2985 RMK A01 T01860055  RH  043%=      5-min Rain = 0
KRRS 220425Z 22006KT 19/06 A2985 RMK A01 T01860055  RH  043%=      5-min Rain = 0
KRRS 220430Z 22007KT 19/06 A2985 RMK A01 T01860055  RH  043%=      5-min Rain = 0
KRRS 220435Z 22007KT 18/06 A2985 RMK A01 T01820056  RH  045%=      5-min Rain = 0
KRRS 220440Z 21007KT 18/06 A2985 RMK A01 T01820056  RH  045%=      5-min Rain = 0
KRRS 220445Z 18008KT 18/06 A2986 RMK A01 T01780059  RH  047%=      5-min Rain = 0
KRRS 220450Z 18009KT 18/06 A2986 RMK A01 T01770060  RH  047%=      5-min Rain = 0
KRRS 220455Z 18008KT 18/06 A2986 RMK A01 T01780061  RH  047%=      5-min Rain = 0

Page generated in 0.0099 seconds.